Time;durP1;ratioP1;P1;durP2;ratioP2;P2;SDS_P1;SDS_P2;PMS_P1;PMS_P2;Temp;Humidity;BMP_temperature;BMP_pressure;BME280_temperature;BME280_humidity;BME280_pressure;Samples;Min_cycle;Max_cycle;Signal;HPM_P1;HPM_P2
2022/06/28 00:00:13;;;;;;;9.38;7.08;;;;;;;23.00;61.37;100655.04;1664715;86;21085;-65
2022/06/28 00:02:43;;;;;;;10.03;7.55;;;;;;;23.02;61.39;100655.05;1664548;86;21257;-65
2022/06/28 00:05:13;;;;;;;12.05;7.55;;;;;;;23.02;61.42;100663.98;1664629;86;21443;-65
2022/06/28 00:07:42;;;;;;;11.10;7.67;;;;;;;23.00;61.55;100664.27;1664521;86;21098;-65
2022/06/28 00:10:12;;;;;;;11.93;7.45;;;;;;;23.02;61.61;100663.43;1664438;86;21086;-66
2022/06/28 00:12:41;;;;;;;9.55;7.42;;;;;;;23.05;61.69;100660.09;1664501;86;21050;-64
2022/06/28 00:18:00;;;;;;;12.15;7.53;;;;;;;23.11;61.60;100658.15;1664576;86;21510;-65
2022/06/28 00:20:29;;;;;;;9.65;7.22;;;;;;;23.08;61.61;100660.09;1664562;86;21450;-65
2022/06/28 00:22:58;;;;;;;9.78;7.33;;;;;;;23.04;61.75;100659.80;1664674;86;21043;-65
2022/06/28 00:25:27;;;;;;;11.57;7.45;;;;;;;23.00;61.95;100664.81;1664499;86;21074;-65
2022/06/28 00:27:56;;;;;;;12.18;7.22;;;;;;;22.93;62.20;100655.84;1664656;86;21105;-66
2022/06/28 00:30:25;;;;;;;8.60;7.55;;;;;;;22.85;62.47;100659.17;1664529;86;21038;-64
2022/06/28 00:32:55;;;;;;;8.43;7.37;;;;;;;22.77;62.78;100654.91;1664830;86;21039;-65
2022/06/28 00:35:24;;;;;;;11.57;7.65;;;;;;;22.72;63.00;100659.89;1664518;86;21073;-66
2022/06/28 00:37:53;;;;;;;9.98;7.45;;;;;;;22.71;63.06;100650.38;1664591;86;21089;-65
2022/06/28 00:40:22;;;;;;;9.93;7.40;;;;;;;22.67;63.19;100654.28;1664559;85;21501;-65
2022/06/28 00:42:51;;;;;;;12.45;7.87;;;;;;;22.67;63.29;100655.67;1664473;86;21039;-65
2022/06/28 00:45:20;;;;;;;10.70;8.23;;;;;;;22.66;63.41;100653.15;1664518;86;21142;-66
2022/06/28 00:47:49;;;;;;;10.43;8.55;;;;;;;22.66;63.45;100650.36;1664450;86;21517;-66
2022/06/28 00:50:18;;;;;;;14.65;8.48;;;;;;;22.68;63.50;100651.77;1664567;86;21043;-66
2022/06/28 00:53:09;;;;;;;11.65;8.23;;;;;;;22.67;63.59;100652.04;1664256;86;21058;-65
2022/06/28 00:55:37;;;;;;;9.98;8.28;;;;;;;22.66;63.67;100660.13;1664495;86;21078;-66
2022/06/28 00:58:09;;;;;;;10.88;8.10;;;;;;;22.67;63.72;100653.44;1664658;86;21066;-66
2022/06/28 01:00:44;;;;;;;10.93;8.70;;;;;;;22.71;63.66;100658.20;1664361;86;21078;-66
2022/06/28 01:03:20;;;;;;;15.35;8.30;;;;;;;22.74;63.61;100650.67;1664454;86;21058;-65
2022/06/28 01:05:50;;;;;;;12.58;8.50;;;;;;;22.76;63.63;100648.48;1664573;86;21538;-67
2022/06/28 01:08:19;;;;;;;11.80;8.05;;;;;;;22.80;63.59;100657.19;1664239;86;21462;-65
2022/06/28 01:10:48;;;;;;;15.38;8.63;;;;;;;22.81;63.58;100654.69;1664601;86;21113;-66
2022/06/28 01:13:18;;;;;;;10.98;8.50;;;;;;;22.82;63.56;100653.57;1664449;86;21090;-66
2022/06/28 01:15:49;;;;;;;10.68;8.60;;;;;;;22.83;63.56;100651.06;1664212;86;21469;-67
2022/06/28 01:18:19;;;;;;;11.30;8.58;;;;;;;22.81;63.55;100648.25;1664612;86;21069;-66
2022/06/28 01:20:50;;;;;;;10.43;8.70;;;;;;;22.78;63.60;100640.67;1664634;86;21065;-67
2022/06/28 01:23:23;;;;;;;11.25;8.20;;;;;;;22.76;63.77;100643.45;1664801;86;21078;-66
2022/06/28 01:25:54;;;;;;;9.33;8.15;;;;;;;22.71;63.85;100646.19;1662924;86;21042;-66
2022/06/28 01:28:24;;;;;;;10.80;8.10;;;;;;;22.72;63.99;100652.06;1664014;86;21302;-66
2022/06/28 01:30:55;;;;;;;10.08;8.25;;;;;;;22.71;64.06;100648.98;1664444;86;21034;-66
2022/06/28 01:33:25;;;;;;;9.93;8.35;;;;;;;22.70;64.16;100636.13;1664469;86;21054;-66
2022/06/28 01:35:55;;;;;;;11.20;8.55;;;;;;;22.68;64.21;100641.14;1664694;86;21050;-67
2022/06/28 01:38:23;;;;;;;11.15;8.70;;;;;;;22.66;64.31;100640.58;1664061;86;21058;-65
2022/06/28 01:40:52;;;;;;;10.03;8.50;;;;;;;22.63;64.48;100641.97;1664578;85;21371;-66
2022/06/28 01:43:21;;;;;;;10.88;8.53;;;;;;;22.62;64.67;100640.84;1664876;86;21055;-65
2022/06/28 01:45:51;;;;;;;9.00;7.75;;;;;;;22.63;64.72;100641.13;1664590;86;21069;-66
2022/06/28 01:48:20;;;;;;;11.20;8.45;;;;;;;22.65;64.76;100634.70;1664439;86;21046;-66
2022/06/28 01:50:53;;;;;;;9.78;7.87;;;;;;;22.65;64.83;100644.48;1659112;86;21050;-65
2022/06/28 01:53:23;;;;;;;9.55;8.38;;;;;;;22.60;65.01;100642.51;1664582;86;21118;-66
2022/06/28 01:56:00;;;;;;;13.03;8.10;;;;;;;22.58;65.19;100639.70;1664105;86;21083;-66
2022/06/28 01:58:36;;;;;;;9.23;8.20;;;;;;;22.57;65.30;100640.26;1656267;86;21514;-65
2022/06/28 02:01:05;;;;;;;11.20;8.58;;;;;;;22.54;65.44;100645.55;1664734;86;21130;-66
2022/06/28 02:03:35;;;;;;;10.98;8.58;;;;;;;22.48;65.68;100640.48;1640361;86;21018;-66
2022/06/28 02:06:05;;;;;;;12.60;7.95;;;;;;;22.46;65.87;100640.76;1662500;86;21479;-65
2022/06/28 02:08:35;;;;;;;9.68;8.30;;;;;;;22.45;66.05;100642.42;1641379;86;21062;-66
2022/06/28 02:11:06;;;;;;;12.05;8.58;;;;;;;22.44;66.22;100643.53;1664784;86;21038;-67
2022/06/28 02:13:37;;;;;;;13.15;8.35;;;;;;;22.45;66.30;100637.68;1664228;86;21347;-66
2022/06/28 02:16:07;;;;;;;11.68;9.28;;;;;;;22.52;66.30;100642.18;1664418;86;21454;-65
2022/06/28 02:18:37;;;;;;;11.85;8.63;;;;;;;22.55;66.23;100637.45;1664224;86;21059;-64
2022/06/28 02:21:07;;;;;;;12.63;9.10;;;;;;;22.55;66.18;100634.66;1664493;86;21046;-64
2022/06/28 02:23:36;;;;;;;10.13;8.78;;;;;;;22.54;66.26;100649.17;1664543;86;21043;-66
2022/06/28 02:26:04;;;;;;;11.05;8.48;;;;;;;22.53;66.27;100638.28;1664719;86;21082;-65
2022/06/28 02:28:34;;;;;;;9.33;8.33;;;;;;;22.55;66.28;100638.84;1664567;86;21047;-68
2022/06/28 02:31:12;;;;;;;12.55;9.10;;;;;;;22.56;66.32;100634.94;1664468;86;21105;-66
2022/06/28 02:33:42;;;;;;;12.03;8.65;;;;;;;22.56;66.38;100637.18;1664752;86;21126;-66
2022/06/28 02:41:47;;;;;;;;;;;;;;;22.55;66.66;100635.50;1675609;84;21563;-68
2022/06/28 02:44:19;;;;;;;11.75;8.58;;;;;;;22.54;66.80;100632.42;1673472;86;20211;-65
2022/06/28 02:46:47;;;;;;;11.00;8.30;;;;;;;22.52;66.99;100636.59;1673757;86;21073;-66
2022/06/28 02:49:17;;;;;;;12.90;8.63;;;;;;;22.54;67.06;100642.20;1673589;86;21532;-68
2022/06/28 02:51:46;;;;;;;12.90;9.10;;;;;;;22.60;67.08;100641.66;1645019;86;21054;-66
2022/06/28 02:54:15;;;;;;;10.20;8.33;;;;;;;22.64;67.04;100638.61;1673670;86;21089;-65
2022/06/28 02:56:44;;;;;;;11.35;9.20;;;;;;;22.68;67.07;100634.16;1673651;84;21475;-66
2022/06/28 02:59:13;;;;;;;9.43;8.43;;;;;;;22.71;67.09;100633.62;1673739;86;21086;-65
2022/06/28 03:01:42;;;;;;;10.15;8.98;;;;;;;22.75;67.01;100635.59;1673700;86;21078;-66
2022/06/28 03:04:11;;;;;;;10.58;8.48;;;;;;;22.81;67.00;100632.89;1673216;86;21106;-66
2022/06/28 03:06:42;;;;;;;11.63;9.43;;;;;;;22.86;66.90;100642.12;1673430;86;21050;-66
2022/06/28 03:09:11;;;;;;;19.48;10.78;;;;;;;22.92;66.80;100636.00;1673531;84;21054;-66
2022/06/28 03:11:40;;;;;;;15.95;9.30;;;;;;;22.98;66.72;100635.75;1673432;84;21066;-69
2022/06/28 03:14:09;;;;;;;12.15;9.25;;;;;;;23.01;66.74;100635.20;1673811;86;21046;-66
2022/06/28 03:16:38;;;;;;;14.28;8.88;;;;;;;23.03;66.81;100630.73;1673467;86;21069;-66
2022/06/28 03:19:07;;;;;;;12.15;9.38;;;;;;;23.04;66.76;100630.45;1673188;86;21121;-66
2022/06/28 03:21:36;;;;;;;14.15;8.83;;;;;;;23.08;66.75;100627.95;1673505;86;21510;-66
2022/06/28 03:24:07;;;;;;;12.15;8.98;;;;;;;23.13;66.73;100634.11;1673347;85;21011;-67
2022/06/28 03:26:37;;;;;;;9.73;8.73;;;;;;;23.17;66.70;100634.69;1673341;85;21022;-67
2022/06/28 03:29:06;;;;;;;10.40;8.98;;;;;;;23.21;66.66;100630.78;1673547;84;21042;-67
2022/06/28 03:31:34;;;;;;;10.23;9.23;;;;;;;23.26;66.60;100639.18;1673625;84;21121;-66
2022/06/28 03:34:03;;;;;;;11.15;8.73;;;;;;;23.30;66.56;100633.31;1673341;86;21486;-67
2022/06/28 03:36:33;;;;;;;11.05;9.50;;;;;;;23.35;66.46;100634.17;1673312;86;21594;-66
2022/06/28 03:39:15;;;;;;;14.30;9.65;;;;;;;23.41;66.35;100639.24;1670232;86;21046;-65
2022/06/28 03:41:49;;;;;;;11.48;8.98;;;;;;;23.47;66.16;100635.89;1673125;85;21073;-66
2022/06/28 03:44:18;;;;;;;11.35;8.40;;;;;;;23.52;66.03;100637.30;1673609;86;21046;-65
2022/06/28 03:46:47;;;;;;;17.92;9.90;;;;;;;23.58;65.87;100645.45;1673408;86;21045;-65
2022/06/28 03:49:21;;;;;;;13.38;8.88;;;;;;;23.62;65.89;100645.17;1638282;86;21061;-65
2022/06/28 03:51:57;;;;;;;12.80;9.00;;;;;;;23.68;65.77;100644.63;1673483;84;21474;-66
2022/06/28 03:54:28;;;;;;;11.63;8.13;;;;;;;23.71;65.77;100644.06;1673400;86;21046;-66
2022/06/28 03:57:02;;;;;;;9.43;8.53;;;;;;;23.76;65.67;100641.83;1672948;86;21038;-66
2022/06/28 03:59:31;;;;;;;10.18;8.73;;;;;;;23.81;65.64;100646.02;1673603;86;21064;-65
2022/06/28 04:02:00;;;;;;;10.32;8.38;;;;;;;23.85;65.36;100640.14;1673609;86;21046;-66
2022/06/28 04:04:37;;;;;;;10.38;8.63;;;;;;;23.88;65.25;100646.02;1659982;86;21069;-66
2022/06/28 04:07:06;;;;;;;9.95;8.53;;;;;;;23.93;65.12;100646.58;1673719;86;21557;-66
2022/06/28 04:09:36;;;;;;;11.28;8.10;;;;;;;23.98;64.94;100652.18;1673659;86;21022;-66
2022/06/28 04:12:06;;;;;;;10.70;8.38;;;;;;;24.04;64.83;100644.89;1673355;86;21098;-66
2022/06/28 04:14:35;;;;;;;11.53;8.08;;;;;;;24.09;64.62;100645.48;1673716;86;21085;-65
2022/06/28 04:17:05;;;;;;;12.10;8.60;;;;;;;24.15;64.31;100646.31;1673492;84;21560;-67
2022/06/28 04:19:38;;;;;;;11.75;8.13;;;;;;;24.20;64.05;100642.95;1672303;86;21086;-67
2022/06/28 04:22:07;;;;;;;13.58;7.97;;;;;;;24.25;63.92;100637.90;1673343;86;21533;-67
2022/06/28 04:24:37;;;;;;;13.15;7.90;;;;;;;24.31;63.62;100641.00;1673663;86;21050;-65
2022/06/28 04:27:11;;;;;;;9.50;7.90;;;;;;;24.36;63.38;100635.95;1672949;86;21524;-65
2022/06/28 04:29:39;;;;;;;11.30;8.03;;;;;;;24.43;62.96;100631.73;1673586;86;21087;-67
2022/06/28 04:32:10;;;;;;;16.70;7.80;;;;;;;24.49;62.77;100635.36;1673632;86;21026;-66
2022/06/28 04:34:39;;;;;;;13.25;7.47;;;;;;;24.53;62.35;100634.50;1673489;86;21022;-66
2022/06/28 04:37:08;;;;;;;8.98;7.90;;;;;;;24.60;61.61;100639.80;1673238;86;21053;-66
2022/06/28 04:39:39;;;;;;;10.93;6.58;;;;;;;24.67;61.39;100638.94;1673469;85;21101;-66
2022/06/28 04:42:14;;;;;;;18.80;7.90;;;;;;;24.75;60.56;100638.38;1672750;86;21617;-67
2022/06/28 04:44:45;;;;;;;8.05;6.35;;;;;;;24.83;60.03;100635.55;1673502;86;21516;-67
2022/06/28 04:47:16;;;;;;;9.63;6.67;;;;;;;24.91;59.35;100641.96;1673316;86;21093;-67
2022/06/28 04:49:46;;;;;;;9.43;7.22;;;;;;;24.99;58.97;100639.15;1673489;85;21042;-67
2022/06/28 04:52:14;;;;;;;11.70;6.53;;;;;;;25.06;58.57;100641.91;1673354;85;21017;-67
2022/06/28 04:54:45;;;;;;;8.85;6.33;;;;;;;25.16;58.28;100634.02;1672760;84;21065;-68
2022/06/28 04:57:24;;;;;;;8.60;6.20;;;;;;;25.25;58.02;100638.72;1673036;86;22156;-66
2022/06/28 04:59:55;;;;;;;8.00;6.35;;;;;;;25.42;57.08;100638.94;1671511;86;21498;-67
2022/06/28 05:02:27;;;;;;;12.68;9.08;;;;;;;25.65;55.87;100630.34;1672532;84;21066;-67
2022/06/28 05:04:59;;;;;;;10.82;6.80;;;;;;;25.90;55.39;100636.63;1660021;86;21486;-67
2022/06/28 05:07:32;;;;;;;8.98;7.00;;;;;;;26.20;54.89;100634.70;1672399;86;21054;-67
2022/06/28 05:10:04;;;;;;;9.15;6.95;;;;;;;26.53;54.17;100637.19;1673178;86;21483;-66
2022/06/28 05:12:34;;;;;;;14.90;6.15;;;;;;;26.87;53.32;100635.68;1673332;85;21062;-67
2022/06/28 05:15:05;;;;;;;10.05;6.08;;;;;;;27.25;52.05;100632.38;1673214;86;21470;-67
2022/06/28 05:17:37;;;;;;;7.87;5.67;;;;;;;27.57;50.79;100635.03;1671210;84;21504;-67
2022/06/28 05:20:08;;;;;;;10.55;7.00;;;;;;;27.91;50.16;100637.03;1673804;86;21054;-68
2022/06/28 05:22:37;;;;;;;7.62;5.92;;;;;;;28.22;49.15;100631.72;1673495;86;21044;-67
2022/06/28 05:25:09;;;;;;;8.50;6.67;;;;;;;28.49;48.29;100632.94;1671453;86;21442;-67
2022/06/28 05:27:39;;;;;;;10.00;6.50;;;;;;;28.73;47.84;100625.14;1645379;86;21066;-66
2022/06/28 05:30:10;;;;;;;13.78;6.85;;;;;;;28.91;46.79;100619.16;1673368;85;21078;-68
2022/06/28 05:32:41;;;;;;;11.55;6.75;;;;;;;29.13;46.85;100619.23;1673274;86;21078;-67
2022/06/28 05:35:10;;;;;;;7.28;5.70;;;;;;;29.33;46.15;100613.72;1673213;84;21038;-67
2022/06/28 05:37:40;;;;;;;10.05;6.30;;;;;;;29.52;46.07;100609.36;1673358;86;21038;-66
2022/06/28 05:40:10;;;;;;;6.95;5.72;;;;;;;29.78;45.15;100612.38;1673314;84;21069;-67
2022/06/28 05:42:40;;;;;;;21.48;6.50;;;;;;;30.04;44.77;100615.45;1663539;85;21078;-67
2022/06/28 05:45:10;;;;;;;7.12;6.20;;;;;;;30.34;43.94;100609.55;1664016;86;21050;-67
2022/06/28 05:47:40;;;;;;;15.93;6.70;;;;;;;30.53;43.38;100606.72;1664300;86;21079;-68
2022/06/28 05:50:10;;;;;;;10.70;5.72;;;;;;;30.75;42.94;100610.69;1664260;86;21054;-66
2022/06/28 05:52:39;;;;;;;6.80;5.92;;;;;;;30.96;42.40;100610.91;1664293;86;21047;-68
2022/06/28 05:55:09;;;;;;;12.33;6.08;;;;;;;31.11;42.03;100609.87;1663978;86;21107;-68
2022/06/28 05:57:38;;;;;;;5.90;5.30;;;;;;;31.31;41.56;100610.45;1663996;86;21556;-68
2022/06/28 06:00:09;;;;;;;8.05;5.80;;;;;;;31.50;41.10;100606.13;1664307;86;21094;-68
2022/06/28 06:02:44;;;;;;;6.53;5.60;;;;;;;31.73;40.41;100612.48;1664379;86;21090;-66
2022/06/28 06:05:13;;;;;;;9.65;6.12;;;;;;;31.97;39.90;100610.56;1663993;86;21070;-69
2022/06/28 06:07:45;;;;;;;9.33;5.72;;;;;;;32.12;39.92;100612.03;1663755;86;21035;-67
2022/06/28 06:10:15;;;;;;;11.43;5.80;;;;;;;32.29;39.43;100619.69;1664336;86;21054;-67
2022/06/28 06:12:46;;;;;;;8.48;6.15;;;;;;;32.36;39.49;100618.58;1664089;86;21058;-70
2022/06/28 06:15:14;;;;;;;9.33;5.55;;;;;;;32.45;38.97;100617.38;1664267;86;21042;-67
2022/06/28 06:17:43;;;;;;;7.92;5.90;;;;;;;32.49;38.88;100621.78;1639847;86;21221;-71
2022/06/28 06:20:12;;;;;;;6.50;5.15;;;;;;;32.63;38.45;100619.59;1664117;86;21483;-67
2022/06/28 06:22:43;;;;;;;10.88;5.45;;;;;;;32.81;38.03;100619.53;1664059;86;21062;-67
2022/06/28 06:25:16;;;;;;;8.55;5.10;;;;;;;33.16;37.45;100610.22;1661162;86;21094;-67
2022/06/28 06:27:46;;;;;;;5.97;5.28;;;;;;;33.43;37.07;100606.91;1664377;86;21070;-66
2022/06/28 06:30:19;;;;;;;9.53;6.00;;;;;;;33.62;36.73;100593.03;1664288;86;21094;-67
2022/06/28 06:32:50;;;;;;;8.60;5.37;;;;;;;33.71;36.50;100604.32;1662208;86;21158;-68
2022/06/28 06:35:20;;;;;;;9.18;5.80;;;;;;;33.76;36.45;100595.58;1660535;86;21475;-68
2022/06/28 06:37:52;;;;;;;7.42;5.30;;;;;;;33.81;36.18;100599.63;1664332;86;21054;-67
2022/06/28 06:40:21;;;;;;;6.22;5.00;;;;;;;33.84;36.10;100598.98;1663763;86;21093;-67
2022/06/28 06:42:50;;;;;;;8.15;6.03;;;;;;;33.84;35.56;100601.83;1671668;85;21205;-67
2022/06/28 06:45:21;;;;;;;10.88;6.12;;;;;;;33.87;35.95;100602.55;1673038;84;21077;-68
2022/06/28 06:47:50;;;;;;;10.08;6.12;;;;;;;33.92;36.12;100597.23;1673536;85;21018;-68
2022/06/28 06:50:22;;;;;;;11.55;6.10;;;;;;;33.99;35.83;100604.61;1673525;84;21038;-67
2022/06/28 06:52:51;;;;;;;6.55;5.25;;;;;;;34.01;36.09;100607.34;1673432;84;21022;-68
2022/06/28 06:55:20;;;;;;;11.33;5.30;;;;;;;34.11;35.58;100596.11;1673390;86;21025;-69
2022/06/28 06:57:49;;;;;;;8.90;5.22;;;;;;;34.40;34.20;100592.87;1673258;84;21482;-67
2022/06/28 07:00:19;;;;;;;8.60;5.80;;;;;;;34.50;34.42;100593.27;1673120;86;21111;-67
2022/06/28 07:02:48;;;;;;;8.35;5.78;;;;;;;34.53;34.08;100600.27;1673472;86;21069;-68
2022/06/28 07:05:18;;;;;;;5.97;4.95;;;;;;;34.45;33.82;100602.61;1673323;85;21046;-67
2022/06/28 07:07:46;;;;;;;13.40;5.85;;;;;;;34.54;32.93;100595.66;1673324;85;21487;-68
2022/06/28 07:10:17;;;;;;;9.10;5.60;;;;;;;34.57;33.40;100594.11;1673376;86;21093;-68
2022/06/28 07:12:47;;;;;;;8.53;5.37;;;;;;;34.46;33.34;100592.29;1673634;84;21032;-67
2022/06/28 07:15:16;;;;;;;8.68;4.78;;;;;;;34.29;33.22;100584.77;1673587;84;21101;-68
2022/06/28 07:17:45;;;;;;;9.40;4.90;;;;;;;34.27;33.01;100589.98;1673338;86;21097;-67
2022/06/28 07:20:14;;;;;;;5.62;4.80;;;;;;;34.09;33.58;100588.52;1673653;86;21042;-67
2022/06/28 07:22:43;;;;;;;8.00;4.87;;;;;;;33.90;33.43;100588.23;1673443;84;21042;-67
2022/06/28 07:25:14;;;;;;;6.47;4.87;;;;;;;33.71;33.64;100589.52;1673193;86;21038;-66
2022/06/28 07:27:44;;;;;;;7.67;5.08;;;;;;;33.44;34.08;100582.99;1673668;86;21050;-68
2022/06/28 07:30:13;;;;;;;5.33;4.70;;;;;;;33.29;34.47;100597.20;1673758;86;21093;-67
2022/06/28 07:32:42;;;;;;;7.70;4.97;;;;;;;33.24;34.89;100596.58;1673464;86;21085;-66
2022/06/28 07:35:12;;;;;;;6.35;5.10;;;;;;;33.22;34.89;100601.77;1645321;86;21069;-67
2022/06/28 07:37:42;;;;;;;5.50;4.55;;;;;;;33.32;34.73;100599.38;1673622;86;21038;-68
2022/06/28 07:40:12;;;;;;;6.58;4.42;;;;;;;33.40;34.69;100596.23;1673554;84;21454;-66
2022/06/28 07:43:00;;;;;;;6.45;4.97;;;;;;;33.62;34.48;100593.03;1671722;84;21070;-68
2022/06/28 07:45:40;;;;;;;8.35;4.97;;;;;;;33.84;33.88;100599.58;1666293;84;21086;-69
2022/06/28 07:48:14;;;;;;;8.20;4.78;;;;;;;33.68;34.14;100589.38;1690875;84;21399;-66
2022/06/28 07:53:32;;;;;;;8.33;5.30;;;;;;;33.34;34.28;100589.92;1686448;85;21513;-68
2022/06/28 07:56:12;;;;;;;20.05;6.72;;;;;;;33.25;34.73;100600.49;1650435;85;21110;-66
2022/06/28 07:58:41;;;;;;;6.50;5.20;;;;;;;33.17;35.15;100606.23;1692203;85;21556;-68
2022/06/28 08:01:11;;;;;;;6.12;4.70;;;;;;;33.01;35.23;100608.81;1685154;85;21082;-70
2022/06/28 08:03:51;;;;;;;7.47;5.00;;;;;;;32.94;35.42;100612.20;1656594;86;21113;-69
2022/06/28 08:06:37;;;;;;;7.62;5.58;;;;;;;33.01;35.24;100603.97;1665100;86;21581;-70
2022/06/28 08:09:07;;;;;;;11.05;5.25;;;;;;;33.14;34.71;100607.73;1654364;86;21077;-70
2022/06/28 08:11:39;;;;;;;8.95;5.15;;;;;;;33.22;34.86;100608.88;1670044;86;21026;-71
2022/06/28 08:14:11;;;;;;;8.50;5.17;;;;;;;33.27;34.84;100602.40;1643856;86;21137;-68
2022/06/28 08:16:41;;;;;;;5.60;5.10;;;;;;;33.27;35.08;100600.98;1670166;86;21035;-70
2022/06/28 08:19:15;;;;;;;9.28;5.22;;;;;;;33.34;34.50;100597.62;1649215;86;21090;-70
2022/06/28 08:21:43;;;;;;;5.55;4.97;;;;;;;33.29;34.24;100601.47;1641483;87;21085;-69
2022/06/28 08:24:12;;;;;;;5.08;4.58;;;;;;;33.16;34.62;100597.44;1641889;87;21102;-70
2022/06/28 08:26:44;;;;;;;5.85;4.90;;;;;;;33.10;34.36;100590.55;1641532;87;21066;-69
2022/06/28 08:29:16;;;;;;;4.90;4.40;;;;;;;33.15;34.39;100592.94;1641267;87;21106;-69
2022/06/28 08:31:45;;;;;;;6.78;4.20;;;;;;;33.42;34.38;100584.52;1641588;87;21142;-69
2022/06/28 08:34:14;;;;;;;7.97;5.05;;;;;;;33.74;33.96;100587.98;1641622;87;21082;-68
2022/06/28 08:36:43;;;;;;;8.05;5.05;;;;;;;33.88;33.48;100587.75;1641419;87;21054;-63
2022/06/28 08:39:13;;;;;;;5.55;4.83;;;;;;;33.84;33.67;100588.20;1641443;87;21060;-69
2022/06/28 08:41:42;;;;;;;9.48;5.00;;;;;;;33.83;33.74;100586.55;1639728;87;21491;-69
2022/06/28 08:44:12;;;;;;;8.23;5.17;;;;;;;33.78;33.43;100584.69;1627345;88;21076;-68
2022/06/28 08:46:41;;;;;;;5.35;4.72;;;;;;;33.87;33.15;100574.71;1611237;88;21157;-69
2022/06/28 08:49:15;;;;;;;7.87;5.28;;;;;;;34.10;32.93;100570.27;1607010;88;21062;-69
2022/06/28 08:51:44;;;;;;;5.58;4.92;;;;;;;34.37;32.67;100576.51;1606732;87;21128;-72
2022/06/28 08:54:13;;;;;;;5.40;4.90;;;;;;;34.64;32.22;100578.09;1646749;87;21085;-69
2022/06/28 08:56:43;;;;;;;5.95;4.65;;;;;;;34.84;31.14;100575.52;1616401;88;21819;-70
2022/06/28 08:59:12;;;;;;;6.00;4.65;;;;;;;34.74;31.55;100578.22;1631460;88;21109;-67
2022/06/28 09:01:40;;;;;;;6.60;4.75;;;;;;;34.74;31.86;100573.95;1631321;88;21087;-71
2022/06/28 09:04:11;;;;;;;7.12;5.10;;;;;;;34.76;32.04;100575.84;1631544;88;21126;-67
2022/06/28 09:06:40;;;;;;;7.08;4.87;;;;;;;34.78;31.82;100572.64;1631372;87;21098;-69
2022/06/28 09:09:11;;;;;;;5.03;4.50;;;;;;;34.76;31.84;100561.61;1631988;87;21081;-71
2022/06/28 09:11:45;;;;;;;5.95;5.03;;;;;;;34.83;31.79;100564.72;1632195;87;21556;-69
2022/06/28 09:14:31;;;;;;;6.37;4.80;;;;;;;34.76;31.82;100566.47;1631444;88;21113;-68
2022/06/28 09:17:20;;;;;;;7.58;4.95;;;;;;;34.58;32.13;100567.30;1631104;88;21125;-70
2022/06/28 09:19:54;;;;;;;6.42;5.40;;;;;;;34.34;32.45;100575.20;1613316;88;21078;-68
2022/06/28 09:22:30;;;;;;;6.15;5.00;;;;;;;34.28;32.55;100580.85;1631249;88;21108;-70
2022/06/28 09:25:00;;;;;;;5.78;5.15;;;;;;;34.12;32.34;100567.91;1631375;88;21074;-69
2022/06/28 09:27:36;;;;;;;6.92;5.40;;;;;;;33.94;32.92;100557.31;1631418;88;21050;-71
2022/06/28 09:30:08;;;;;;;10.35;6.00;;;;;;;33.91;32.90;100557.19;1629625;88;21106;-71
2022/06/28 09:32:38;;;;;;;6.92;5.47;;;;;;;33.85;33.24;100550.06;1619913;88;21121;-71
2022/06/28 09:35:10;;;;;;;7.50;5.53;;;;;;;33.89;33.09;100553.86;1597281;88;21222;-71
2022/06/28 09:37:48;;;;;;;9.53;5.50;;;;;;;33.87;32.87;100549.95;1620028;87;21474;-71
2022/06/28 09:40:26;;;;;;;9.35;5.65;;;;;;;33.78;33.28;100561.11;1619913;88;21110;-70
2022/06/28 09:43:11;;;;;;;7.47;5.67;;;;;;;33.67;33.36;100551.59;1620481;85;21071;-70
2022/06/28 09:45:43;;;;;;;6.55;5.40;;;;;;;33.62;33.20;100548.98;1620675;88;21118;-71
2022/06/28 09:48:18;;;;;;;6.80;5.37;;;;;;;33.64;33.26;100557.98;1620490;88;21127;-70
2022/06/28 09:50:47;;;;;;;6.00;5.37;;;;;;;33.63;33.51;100541.28;1620606;88;21154;-70
2022/06/28 09:53:16;;;;;;;5.30;4.80;;;;;;;33.69;33.24;100529.34;1629805;88;21117;-69
2022/06/28 09:55:45;;;;;;;6.08;5.47;;;;;;;33.73;33.08;100533.15;1626251;88;21138;-71
2022/06/28 09:58:14;;;;;;;7.12;5.20;;;;;;;33.80;33.17;100528.90;1600978;88;21055;-72
2022/06/28 10:00:43;;;;;;;6.65;5.97;;;;;;;33.84;32.87;100529.33;1617523;89;21530;-70
2022/06/28 10:03:12;;;;;;;10.43;6.20;;;;;;;33.81;33.10;100527.72;1633417;88;21094;-70
2022/06/28 10:05:43;;;;;;;6.78;5.87;;;;;;;33.69;33.13;100525.08;1580074;90;21022;-69
2022/06/28 10:08:13;;;;;;;11.70;6.15;;;;;;;33.66;33.05;100520.09;1616980;89;21895;-70
2022/06/28 10:10:44;;;;;;;8.75;5.78;;;;;;;33.62;32.94;100521.98;1617388;89;21492;-70
2022/06/28 10:16:29;;;;;;;6.33;5.72;;;;;;;33.55;33.10;100516.03;1599783;89;21084;-70
2022/06/28 10:18:58;;;;;;;13.28;6.10;;;;;;;33.42;33.14;100504.38;1617405;88;21126;-71
2022/06/28 10:21:55;;;;;;;9.58;5.75;;;;;;;33.31;33.24;100500.31;1617332;89;21106;-69
2022/06/28 10:24:28;;;;;;;9.95;5.87;;;;;;;33.27;33.49;100508.66;1613061;88;21102;-70
2022/06/28 10:27:12;;;;;;;6.50;5.70;;;;;;;33.24;33.59;100498.59;1586062;89;21170;-69
2022/06/28 10:30:10;;;;;;;8.23;5.67;;;;;;;33.26;33.45;100496.23;1608176;88;21067;-71
2022/06/28 10:32:52;;;;;;;9.48;5.70;;;;;;;33.28;33.53;100505.23;1608020;89;21284;-71
2022/06/28 10:35:47;;;;;;;7.97;6.08;;;;;;;33.28;33.60;100498.13;1608254;88;21579;-71
2022/06/28 10:38:17;;;;;;;7.47;5.85;;;;;;;33.28;33.59;100500.97;1608258;89;21106;-70
2022/06/28 10:40:49;;;;;;;6.42;5.62;;;;;;;33.23;33.59;100494.08;1608138;88;21067;-70
2022/06/28 10:43:32;;;;;;;6.78;5.60;;;;;;;33.25;33.38;100507.35;1603147;89;21127;-69
2022/06/28 10:46:06;;;;;;;13.45;6.60;;;;;;;33.24;33.44;100505.69;1599482;89;21074;-70
2022/06/28 10:48:55;;;;;;;6.30;5.72;;;;;;;33.22;33.74;100503.78;1599359;89;21059;-68
2022/06/28 10:51:24;;;;;;;6.35;5.67;;;;;;;33.23;33.46;100506.87;1599346;90;21119;-64
2022/06/28 10:54:06;;;;;;;10.05;6.08;;;;;;;33.15;33.63;100502.89;1554533;91;21139;-68
2022/06/28 10:56:47;;;;;;;7.67;5.67;;;;;;;33.14;33.85;100500.39;1619502;87;21946;-69
2022/06/28 10:59:18;;;;;;;7.03;5.70;;;;;;;33.19;33.67;100492.53;1642674;87;21501;-69
2022/06/28 11:01:53;;;;;;;7.87;6.40;;;;;;;33.22;33.64;100496.09;1642350;87;21646;-68
2022/06/28 11:04:25;;;;;;;6.17;5.53;;;;;;;33.20;33.53;100494.19;1640692;87;21027;-68
2022/06/28 11:06:59;;;;;;;7.28;5.92;;;;;;;33.19;33.27;100489.69;1638075;87;21482;-69
2022/06/28 11:09:50;;;;;;;6.92;5.42;;;;;;;33.15;33.36;100484.44;1626538;87;21463;-68
2022/06/28 11:12:26;;;;;;;9.60;6.10;;;;;;;33.08;33.58;100477.89;1637995;87;21607;-69
2022/06/28 11:14:58;;;;;;;8.83;5.50;;;;;;;33.08;33.96;100479.31;1638023;87;21062;-69
2022/06/28 11:17:43;;;;;;;7.42;5.60;;;;;;;33.18;33.76;100473.83;1638031;87;21094;-70
2022/06/28 11:20:21;;;;;;;7.30;5.75;;;;;;;33.25;33.74;100478.95;1638000;87;21043;-71
2022/06/28 11:22:51;;;;;;;7.65;5.75;;;;;;;33.26;33.44;100467.83;1638094;87;21466;-69
2022/06/28 11:25:25;;;;;;;8.43;6.15;;;;;;;33.21;33.59;100470.88;1638212;87;21030;-67
2022/06/28 11:27:57;;;;;;;6.05;5.45;;;;;;;33.18;33.57;100477.25;1636531;87;21122;-67
2022/06/28 11:30:29;;;;;;;7.70;5.72;;;;;;;33.17;33.69;100472.17;1638053;87;20998;-68
2022/06/28 11:32:59;;;;;;;12.53;6.00;;;;;;;33.18;33.59;100469.56;1637985;87;21114;-67
2022/06/28 11:35:32;;;;;;;5.85;5.22;;;;;;;33.19;33.75;100481.76;1638132;87;21615;-67
2022/06/28 11:38:09;;;;;;;6.72;6.00;;;;;;;33.16;33.76;100469.64;1637970;87;21623;-68
2022/06/28 11:40:51;;;;;;;12.23;6.72;;;;;;;33.10;33.68;100467.02;1638095;87;21054;-69
2022/06/28 11:43:29;;;;;;;7.03;5.87;;;;;;;33.04;33.91;100462.73;1637191;86;21513;-68
2022/06/28 11:45:55;;;;;;;7.30;5.75;;;;;;;33.03;33.64;100468.75;1637883;87;21026;-68
2022/06/28 11:48:31;;;;;;;6.90;5.95;;;;;;;32.98;33.66;100465.53;1637992;87;21508;-65
2022/06/28 11:51:00;;;;;;;6.35;5.28;;;;;;;32.93;33.77;100470.00;1637633;87;21485;-67
2022/06/28 11:53:30;;;;;;;7.37;5.90;;;;;;;32.91;33.74;100458.75;1663782;85;21048;-68
2022/06/28 11:56:00;;;;;;;6.67;5.83;;;;;;;32.88;34.00;100458.03;1641150;87;21025;-68